sensor_id;sensor_type;location;lat;lon;timestamp;P1;durP1;ratioP1;P2;durP2;ratioP2
33814;SDS011;20121;51.910;8.406;2023-07-28T00:02:09;6.07;;;3.93;;
33814;SDS011;20121;51.910;8.406;2023-07-28T00:04:34;9.90;;;4.70;;
33814;SDS011;20121;51.910;8.406;2023-07-28T00:07:01;4.50;;;3.90;;
33814;SDS011;20121;51.910;8.406;2023-07-28T00:09:27;5.50;;;4.15;;
33814;SDS011;20121;51.910;8.406;2023-07-28T00:11:53;5.67;;;4.60;;
33814;SDS011;20121;51.910;8.406;2023-07-28T00:14:19;6.50;;;4.17;;
33814;SDS011;20121;51.910;8.406;2023-07-28T00:16:44;4.80;;;3.70;;
33814;SDS011;20121;51.910;8.406;2023-07-28T00:19:10;6.30;;;4.80;;
33814;SDS011;20121;51.910;8.406;2023-07-28T00:21:36;9.20;;;5.93;;
33814;SDS011;20121;51.910;8.406;2023-07-28T00:24:02;6.65;;;4.82;;
33814;SDS011;20121;51.910;8.406;2023-07-28T00:26:28;6.10;;;4.13;;
33814;SDS011;20121;51.910;8.406;2023-07-28T00:28:54;6.57;;;4.20;;
33814;SDS011;20121;51.910;8.406;2023-07-28T00:31:19;5.57;;;3.70;;
33814;SDS011;20121;51.910;8.406;2023-07-28T00:33:45;4.27;;;3.60;;
33814;SDS011;20121;51.910;8.406;2023-07-28T00:36:10;5.90;;;4.10;;
33814;SDS011;20121;51.910;8.406;2023-07-28T00:38:36;6.10;;;4.57;;
33814;SDS011;20121;51.910;8.406;2023-07-28T00:41:01;5.30;;;4.37;;
33814;SDS011;20121;51.910;8.406;2023-07-28T00:43:27;4.90;;;3.73;;
33814;SDS011;20121;51.910;8.406;2023-07-28T00:45:53;9.07;;;5.17;;
33814;SDS011;20121;51.910;8.406;2023-07-28T00:48:19;5.22;;;3.97;;
33814;SDS011;20121;51.910;8.406;2023-07-28T00:50:45;6.07;;;3.78;;
33814;SDS011;20121;51.910;8.406;2023-07-28T00:53:13;4.07;;;3.47;;
33814;SDS011;20121;51.910;8.406;2023-07-28T00:58:13;4.57;;;3.50;;
33814;SDS011;20121;51.910;8.406;2023-07-28T01:00:38;4.73;;;3.47;;
33814;SDS011;20121;51.910;8.406;2023-07-28T01:03:04;5.50;;;3.47;;
33814;SDS011;20121;51.910;8.406;2023-07-28T01:05:41;4.10;;;2.87;;
33814;SDS011;20121;51.910;8.406;2023-07-28T01:08:11;4.63;;;3.40;;
33814;SDS011;20121;51.910;8.406;2023-07-28T01:11:07;6.65;;;3.85;;
33814;SDS011;20121;51.910;8.406;2023-07-28T01:13:33;4.73;;;3.27;;
33814;SDS011;20121;51.910;8.406;2023-07-28T01:15:59;2.72;;;2.45;;
33814;SDS011;20121;51.910;8.406;2023-07-28T01:18:26;4.60;;;3.33;;
33814;SDS011;20121;51.910;8.406;2023-07-28T01:20:52;4.18;;;2.90;;
33814;SDS011;20121;51.910;8.406;2023-07-28T01:23:27;4.22;;;3.10;;
33814;SDS011;20121;51.910;8.406;2023-07-28T01:28:33;3.28;;;2.60;;
33814;SDS011;20121;51.910;8.406;2023-07-28T01:31:01;4.53;;;3.40;;
33814;SDS011;20121;51.910;8.406;2023-07-28T01:33:28;5.15;;;2.65;;
33814;SDS011;20121;51.910;8.406;2023-07-28T01:35:54;4.53;;;2.65;;
33814;SDS011;20121;51.910;8.406;2023-07-28T01:38:20;2.95;;;2.45;;
33814;SDS011;20121;51.910;8.406;2023-07-28T01:40:46;3.60;;;2.57;;
33814;SDS011;20121;51.910;8.406;2023-07-28T01:43:11;3.10;;;2.30;;
33814;SDS011;20121;51.910;8.406;2023-07-28T01:45:37;2.88;;;2.50;;
33814;SDS011;20121;51.910;8.406;2023-07-28T01:48:03;3.13;;;2.40;;
33814;SDS011;20121;51.910;8.406;2023-07-28T01:50:29;3.47;;;2.88;;
33814;SDS011;20121;51.910;8.406;2023-07-28T01:52:55;3.67;;;2.80;;
33814;SDS011;20121;51.910;8.406;2023-07-28T01:55:21;3.33;;;2.57;;
33814;SDS011;20121;51.910;8.406;2023-07-28T01:57:50;2.90;;;2.13;;
33814;SDS011;20121;51.910;8.406;2023-07-28T02:00:19;2.90;;;2.00;;
33814;SDS011;20121;51.910;8.406;2023-07-28T02:02:46;4.47;;;3.00;;
33814;SDS011;20121;51.910;8.406;2023-07-28T02:05:12;4.20;;;2.92;;
33814;SDS011;20121;51.910;8.406;2023-07-28T02:07:37;3.97;;;2.90;;
33814;SDS011;20121;51.910;8.406;2023-07-28T02:10:03;8.63;;;3.37;;
33814;SDS011;20121;51.910;8.406;2023-07-28T02:12:29;5.30;;;3.17;;
33814;SDS011;20121;51.910;8.406;2023-07-28T02:14:55;3.33;;;3.00;;
33814;SDS011;20121;51.910;8.406;2023-07-28T02:17:20;3.30;;;2.93;;
33814;SDS011;20121;51.910;8.406;2023-07-28T02:19:46;3.93;;;3.17;;
33814;SDS011;20121;51.910;8.406;2023-07-28T02:22:12;6.80;;;3.53;;
33814;SDS011;20121;51.910;8.406;2023-07-28T02:24:38;5.60;;;3.60;;
33814;SDS011;20121;51.910;8.406;2023-07-28T02:27:03;3.83;;;3.43;;
33814;SDS011;20121;51.910;8.406;2023-07-28T02:29:29;3.80;;;3.17;;
33814;SDS011;20121;51.910;8.406;2023-07-28T02:31:55;5.30;;;3.50;;
33814;SDS011;20121;51.910;8.406;2023-07-28T02:34:20;5.13;;;3.60;;
33814;SDS011;20121;51.910;8.406;2023-07-28T02:36:46;3.47;;;2.67;;
33814;SDS011;20121;51.910;8.406;2023-07-28T02:39:12;6.65;;;3.05;;
33814;SDS011;20121;51.910;8.406;2023-07-28T02:41:38;4.60;;;3.33;;
33814;SDS011;20121;51.910;8.406;2023-07-28T02:44:03;5.53;;;4.13;;
33814;SDS011;20121;51.910;8.406;2023-07-28T02:46:29;5.50;;;3.90;;
33814;SDS011;20121;51.910;8.406;2023-07-28T02:48:55;3.43;;;3.13;;
33814;SDS011;20121;51.910;8.406;2023-07-28T02:51:21;10.77;;;3.30;;
33814;SDS011;20121;51.910;8.406;2023-07-28T02:53:46;4.47;;;3.70;;
33814;SDS011;20121;51.910;8.406;2023-07-28T02:56:12;6.00;;;3.60;;
33814;SDS011;20121;51.910;8.406;2023-07-28T02:58:38;4.57;;;3.40;;
33814;SDS011;20121;51.910;8.406;2023-07-28T03:01:03;4.67;;;3.77;;
33814;SDS011;20121;51.910;8.406;2023-07-28T03:03:29;4.20;;;3.10;;
33814;SDS011;20121;51.910;8.406;2023-07-28T03:05:55;7.00;;;3.65;;
33814;SDS011;20121;51.910;8.406;2023-07-28T03:08:21;4.93;;;3.50;;
33814;SDS011;20121;51.910;8.406;2023-07-28T03:10:47;8.17;;;3.70;;
33814;SDS011;20121;51.910;8.406;2023-07-28T03:13:12;7.23;;;4.50;;
33814;SDS011;20121;51.910;8.406;2023-07-28T03:15:38;7.10;;;3.70;;
33814;SDS011;20121;51.910;8.406;2023-07-28T03:18:04;5.20;;;3.43;;
33814;SDS011;20121;51.910;8.406;2023-07-28T03:20:29;5.27;;;4.00;;
33814;SDS011;20121;51.910;8.406;2023-07-28T03:22:55;4.77;;;3.43;;
33814;SDS011;20121;51.910;8.406;2023-07-28T03:25:21;7.30;;;4.60;;
33814;SDS011;20121;51.910;8.406;2023-07-28T03:27:46;5.87;;;4.10;;
33814;SDS011;20121;51.910;8.406;2023-07-28T03:30:12;7.17;;;3.80;;
33814;SDS011;20121;51.910;8.406;2023-07-28T03:32:38;7.43;;;4.60;;
33814;SDS011;20121;51.910;8.406;2023-07-28T03:35:04;5.30;;;3.37;;
33814;SDS011;20121;51.910;8.406;2023-07-28T03:37:32;9.70;;;4.50;;
33814;SDS011;20121;51.910;8.406;2023-07-28T03:39:58;6.93;;;4.40;;
33814;SDS011;20121;51.910;8.406;2023-07-28T03:42:24;5.53;;;4.33;;
33814;SDS011;20121;51.910;8.406;2023-07-28T03:44:50;8.27;;;4.63;;
33814;SDS011;20121;51.910;8.406;2023-07-28T03:47:16;6.05;;;4.22;;
33814;SDS011;20121;51.910;8.406;2023-07-28T03:49:41;8.27;;;4.37;;
33814;SDS011;20121;51.910;8.406;2023-07-28T03:52:07;9.63;;;5.57;;
33814;SDS011;20121;51.910;8.406;2023-07-28T03:54:32;4.10;;;3.60;;
33814;SDS011;20121;51.910;8.406;2023-07-28T03:56:58;6.70;;;4.50;;
33814;SDS011;20121;51.910;8.406;2023-07-28T03:59:24;7.90;;;3.93;;
33814;SDS011;20121;51.910;8.406;2023-07-28T04:01:49;7.37;;;4.83;;
33814;SDS011;20121;51.910;8.406;2023-07-28T04:04:15;6.70;;;4.43;;
33814;SDS011;20121;51.910;8.406;2023-07-28T04:06:41;6.17;;;4.13;;
33814;SDS011;20121;51.910;8.406;2023-07-28T04:09:08;3.95;;;3.47;;
33814;SDS011;20121;51.910;8.406;2023-07-28T04:11:33;7.13;;;4.43;;
33814;SDS011;20121;51.910;8.406;2023-07-28T04:13:59;6.47;;;3.57;;
33814;SDS011;20121;51.910;8.406;2023-07-28T04:16:25;5.53;;;4.40;;
33814;SDS011;20121;51.910;8.406;2023-07-28T04:18:50;7.47;;;3.80;;
33814;SDS011;20121;51.910;8.406;2023-07-28T04:21:16;5.80;;;4.33;;
33814;SDS011;20121;51.910;8.406;2023-07-28T04:23:41;5.33;;;4.10;;
33814;SDS011;20121;51.910;8.406;2023-07-28T04:26:08;3.85;;;3.03;;
33814;SDS011;20121;51.910;8.406;2023-07-28T04:28:34;4.67;;;4.27;;
33814;SDS011;20121;51.910;8.406;2023-07-28T04:30:59;5.80;;;3.80;;
33814;SDS011;20121;51.910;8.406;2023-07-28T04:33:25;6.90;;;3.83;;
33814;SDS011;20121;51.910;8.406;2023-07-28T04:35:51;8.47;;;3.77;;
33814;SDS011;20121;51.910;8.406;2023-07-28T04:38:16;6.30;;;3.87;;
33814;SDS011;20121;51.910;8.406;2023-07-28T04:40:43;6.90;;;4.68;;
33814;SDS011;20121;51.910;8.406;2023-07-28T04:43:09;4.70;;;2.95;;
33814;SDS011;20121;51.910;8.406;2023-07-28T04:45:35;4.50;;;3.30;;
33814;SDS011;20121;51.910;8.406;2023-07-28T04:48:00;7.03;;;4.33;;
33814;SDS011;20121;51.910;8.406;2023-07-28T04:50:26;4.80;;;3.80;;
33814;SDS011;20121;51.910;8.406;2023-07-28T04:52:53;5.80;;;3.85;;
33814;SDS011;20121;51.910;8.406;2023-07-28T04:55:18;6.23;;;4.27;;
33814;SDS011;20121;51.910;8.406;2023-07-28T04:57:44;7.30;;;4.27;;
33814;SDS011;20121;51.910;8.406;2023-07-28T05:00:09;5.73;;;4.13;;
33814;SDS011;20121;51.910;8.406;2023-07-28T05:02:35;3.90;;;3.33;;
33814;SDS011;20121;51.910;8.406;2023-07-28T05:05:01;5.17;;;2.97;;
33814;SDS011;20121;51.910;8.406;2023-07-28T05:07:27;7.37;;;3.50;;
33814;SDS011;20121;51.910;8.406;2023-07-28T05:09:53;4.47;;;3.85;;
33814;SDS011;20121;51.910;8.406;2023-07-28T05:12:19;5.57;;;3.30;;
33814;SDS011;20121;51.910;8.406;2023-07-28T05:14:45;5.28;;;3.97;;
33814;SDS011;20121;51.910;8.406;2023-07-28T05:17:11;5.43;;;4.33;;
33814;SDS011;20121;51.910;8.406;2023-07-28T05:19:37;6.67;;;4.53;;
33814;SDS011;20121;51.910;8.406;2023-07-28T05:22:02;8.77;;;3.90;;
33814;SDS011;20121;51.910;8.406;2023-07-28T05:24:28;6.40;;;4.30;;
33814;SDS011;20121;51.910;8.406;2023-07-28T05:26:54;8.00;;;4.33;;
33814;SDS011;20121;51.910;8.406;2023-07-28T05:29:19;4.60;;;3.40;;
33814;SDS011;20121;51.910;8.406;2023-07-28T05:31:45;9.33;;;4.03;;
33814;SDS011;20121;51.910;8.406;2023-07-28T05:34:11;5.90;;;3.60;;
33814;SDS011;20121;51.910;8.406;2023-07-28T05:36:38;4.45;;;3.20;;
33814;SDS011;20121;51.910;8.406;2023-07-28T05:39:03;9.20;;;4.00;;
33814;SDS011;20121;51.910;8.406;2023-07-28T05:41:29;6.03;;;4.40;;
33814;SDS011;20121;51.910;8.406;2023-07-28T05:43:55;7.77;;;4.67;;
33814;SDS011;20121;51.910;8.406;2023-07-28T05:46:21;3.47;;;2.63;;
33814;SDS011;20121;51.910;8.406;2023-07-28T05:48:46;6.77;;;4.50;;
33814;SDS011;20121;51.910;8.406;2023-07-28T05:51:12;5.50;;;3.90;;
33814;SDS011;20121;51.910;8.406;2023-07-28T05:53:37;6.60;;;4.03;;
33814;SDS011;20121;51.910;8.406;2023-07-28T05:56:03;8.63;;;4.40;;
33814;SDS011;20121;51.910;8.406;2023-07-28T05:58:29;4.93;;;3.93;;
33814;SDS011;20121;51.910;8.406;2023-07-28T06:00:54;5.83;;;5.00;;
33814;SDS011;20121;51.910;8.406;2023-07-28T06:03:20;7.50;;;4.13;;
33814;SDS011;20121;51.910;8.406;2023-07-28T06:05:46;4.45;;;3.58;;
33814;SDS011;20121;51.910;8.406;2023-07-28T06:08:12;5.57;;;4.07;;
33814;SDS011;20121;51.910;8.406;2023-07-28T06:10:38;8.73;;;5.78;;
33814;SDS011;20121;51.910;8.406;2023-07-28T06:13:04;5.90;;;3.67;;
33814;SDS011;20121;51.910;8.406;2023-07-28T06:15:30;9.80;;;5.60;;
33814;SDS011;20121;51.910;8.406;2023-07-28T06:17:56;11.40;;;4.83;;
33814;SDS011;20121;51.910;8.406;2023-07-28T06:20:21;7.83;;;4.87;;
33814;SDS011;20121;51.910;8.406;2023-07-28T06:22:47;9.00;;;5.50;;
33814;SDS011;20121;51.910;8.406;2023-07-28T06:25:13;7.60;;;4.57;;
33814;SDS011;20121;51.910;8.406;2023-07-28T06:27:38;7.23;;;5.30;;
33814;SDS011;20121;51.910;8.406;2023-07-28T06:30:04;6.77;;;5.00;;
33814;SDS011;20121;51.910;8.406;2023-07-28T06:32:30;11.18;;;4.95;;
33814;SDS011;20121;51.910;8.406;2023-07-28T06:34:56;7.30;;;5.57;;
33814;SDS011;20121;51.910;8.406;2023-07-28T06:37:22;7.10;;;4.80;;
33814;SDS011;20121;51.910;8.406;2023-07-28T06:39:48;6.23;;;4.13;;
33814;SDS011;20121;51.910;8.406;2023-07-28T06:42:14;8.60;;;4.73;;
33814;SDS011;20121;51.910;8.406;2023-07-28T06:44:41;7.78;;;4.53;;
33814;SDS011;20121;51.910;8.406;2023-07-28T06:47:07;6.73;;;4.60;;
33814;SDS011;20121;51.910;8.406;2023-07-28T06:49:33;6.80;;;4.70;;
33814;SDS011;20121;51.910;8.406;2023-07-28T06:51:58;7.17;;;4.97;;
33814;SDS011;20121;51.910;8.406;2023-07-28T06:54:24;5.03;;;4.13;;
33814;SDS011;20121;51.910;8.406;2023-07-28T06:56:50;6.47;;;4.33;;
33814;SDS011;20121;51.910;8.406;2023-07-28T06:59:15;8.80;;;4.77;;
33814;SDS011;20121;51.910;8.406;2023-07-28T07:01:41;6.50;;;4.80;;
33814;SDS011;20121;51.910;8.406;2023-07-28T07:04:07;8.40;;;5.10;;
33814;SDS011;20121;51.910;8.406;2023-07-28T07:06:32;7.43;;;4.87;;
33814;SDS011;20121;51.910;8.406;2023-07-28T07:08:58;6.80;;;4.93;;
33814;SDS011;20121;51.910;8.406;2023-07-28T07:11:24;8.17;;;4.80;;
33814;SDS011;20121;51.910;8.406;2023-07-28T07:13:49;8.20;;;5.67;;
33814;SDS011;20121;51.910;8.406;2023-07-28T07:16:15;7.43;;;5.17;;
33814;SDS011;20121;51.910;8.406;2023-07-28T07:18:45;8.27;;;5.03;;
33814;SDS011;20121;51.910;8.406;2023-07-28T07:21:10;6.20;;;4.72;;
33814;SDS011;20121;51.910;8.406;2023-07-28T07:23:36;7.20;;;4.40;;
33814;SDS011;20121;51.910;8.406;2023-07-28T07:26:02;6.67;;;4.83;;
33814;SDS011;20121;51.910;8.406;2023-07-28T07:28:28;8.80;;;5.47;;
33814;SDS011;20121;51.910;8.406;2023-07-28T07:30:54;10.05;;;6.20;;
33814;SDS011;20121;51.910;8.406;2023-07-28T07:33:20;8.50;;;4.97;;
33814;SDS011;20121;51.910;8.406;2023-07-28T07:35:46;7.80;;;4.97;;
33814;SDS011;20121;51.910;8.406;2023-07-28T07:38:12;6.33;;;4.63;;
33814;SDS011;20121;51.910;8.406;2023-07-28T07:40:38;7.27;;;4.33;;
33814;SDS011;20121;51.910;8.406;2023-07-28T07:43:04;4.87;;;3.53;;
33814;SDS011;20121;51.910;8.406;2023-07-28T07:45:30;4.15;;;3.75;;
33814;SDS011;20121;51.910;8.406;2023-07-28T07:47:56;9.67;;;5.80;;
33814;SDS011;20121;51.910;8.406;2023-07-28T07:50:22;9.07;;;4.85;;
33814;SDS011;20121;51.910;8.406;2023-07-28T07:52:48;7.27;;;5.40;;
33814;SDS011;20121;51.910;8.406;2023-07-28T07:55:14;5.40;;;3.55;;
33814;SDS011;20121;51.910;8.406;2023-07-28T07:57:40;7.80;;;4.30;;
33814;SDS011;20121;51.910;8.406;2023-07-28T08:00:06;8.40;;;5.57;;
33814;SDS011;20121;51.910;8.406;2023-07-28T08:02:32;7.00;;;4.47;;
33814;SDS011;20121;51.910;8.406;2023-07-28T08:04:57;7.23;;;4.07;;
33814;SDS011;20121;51.910;8.406;2023-07-28T08:07:23;6.33;;;4.00;;
33814;SDS011;20121;51.910;8.406;2023-07-28T08:09:49;4.80;;;3.53;;
33814;SDS011;20121;51.910;8.406;2023-07-28T08:12:15;4.70;;;3.78;;
33814;SDS011;20121;51.910;8.406;2023-07-28T08:14:41;6.00;;;4.23;;
33814;SDS011;20121;51.910;8.406;2023-07-28T08:17:08;5.20;;;3.90;;
33814;SDS011;20121;51.910;8.406;2023-07-28T08:19:34;7.90;;;4.75;;
33814;SDS011;20121;51.910;8.406;2023-07-28T08:22:00;7.80;;;4.90;;
33814;SDS011;20121;51.910;8.406;2023-07-28T08:24:28;4.40;;;3.63;;
33814;SDS011;20121;51.910;8.406;2023-07-28T08:26:54;4.95;;;4.38;;
33814;SDS011;20121;51.910;8.406;2023-07-28T08:29:20;4.67;;;4.17;;
33814;SDS011;20121;51.910;8.406;2023-07-28T08:31:45;4.17;;;3.40;;
33814;SDS011;20121;51.910;8.406;2023-07-28T08:34:12;5.38;;;3.65;;
33814;SDS011;20121;51.910;8.406;2023-07-28T08:36:37;3.83;;;3.47;;
33814;SDS011;20121;51.910;8.406;2023-07-28T08:39:03;6.20;;;4.40;;
33814;SDS011;20121;51.910;8.406;2023-07-28T08:41:30;4.85;;;3.53;;
33814;SDS011;20121;51.910;8.406;2023-07-28T08:43:55;5.37;;;3.70;;
33814;SDS011;20121;51.910;8.406;2023-07-28T08:46:22;6.30;;;4.28;;
33814;SDS011;20121;51.910;8.406;2023-07-28T08:48:48;4.25;;;3.20;;
33814;SDS011;20121;51.910;8.406;2023-07-28T08:51:14;3.10;;;2.80;;
33814;SDS011;20121;51.910;8.406;2023-07-28T08:53:39;3.37;;;2.50;;
33814;SDS011;20121;51.910;8.406;2023-07-28T08:56:05;5.57;;;3.17;;
33814;SDS011;20121;51.910;8.406;2023-07-28T08:58:31;3.13;;;2.83;;
33814;SDS011;20121;51.910;8.406;2023-07-28T09:00:58;2.70;;;2.30;;
33814;SDS011;20121;51.910;8.406;2023-07-28T09:03:26;5.75;;;4.38;;
33814;SDS011;20121;51.910;8.406;2023-07-28T09:05:53;4.60;;;3.42;;
33814;SDS011;20121;51.910;8.406;2023-07-28T09:08:26;6.38;;;4.03;;
33814;SDS011;20121;51.910;8.406;2023-07-28T09:10:52;4.20;;;3.45;;
33814;SDS011;20121;51.910;8.406;2023-07-28T09:13:19;3.20;;;2.88;;
33814;SDS011;20121;51.910;8.406;2023-07-28T09:15:45;4.57;;;4.17;;
33814;SDS011;20121;51.910;8.406;2023-07-28T09:18:12;3.00;;;2.58;;
33814;SDS011;20121;51.910;8.406;2023-07-28T09:20:40;3.55;;;2.80;;
33814;SDS011;20121;51.910;8.406;2023-07-28T09:23:06;5.40;;;3.47;;
33814;SDS011;20121;51.910;8.406;2023-07-28T09:25:33;4.25;;;3.10;;
33814;SDS011;20121;51.910;8.406;2023-07-28T09:27:59;3.75;;;2.78;;
33814;SDS011;20121;51.910;8.406;2023-07-28T09:30:26;5.20;;;3.40;;
33814;SDS011;20121;51.910;8.406;2023-07-28T09:32:52;3.75;;;3.25;;
33814;SDS011;20121;51.910;8.406;2023-07-28T09:35:20;3.90;;;3.20;;
33814;SDS011;20121;51.910;8.406;2023-07-28T09:37:48;6.28;;;3.25;;
33814;SDS011;20121;51.910;8.406;2023-07-28T09:40:19;6.13;;;3.10;;
33814;SDS011;20121;51.910;8.406;2023-07-28T09:42:46;3.33;;;2.97;;
33814;SDS011;20121;51.910;8.406;2023-07-28T09:45:18;3.17;;;2.50;;
33814;SDS011;20121;51.910;8.406;2023-07-28T09:47:44;2.40;;;2.20;;
33814;SDS011;20121;51.910;8.406;2023-07-28T09:50:13;2.90;;;2.08;;
33814;SDS011;20121;51.910;8.406;2023-07-28T09:52:46;3.70;;;2.70;;
33814;SDS011;20121;51.910;8.406;2023-07-28T09:55:15;2.22;;;2.00;;
33814;SDS011;20121;51.910;8.406;2023-07-28T09:57:45;3.65;;;3.28;;
33814;SDS011;20121;51.910;8.406;2023-07-28T10:00:22;3.50;;;2.85;;
33814;SDS011;20121;51.910;8.406;2023-07-28T10:02:49;3.60;;;3.10;;
33814;SDS011;20121;51.910;8.406;2023-07-28T10:05:15;3.33;;;3.03;;
33814;SDS011;20121;51.910;8.406;2023-07-28T10:07:42;3.93;;;3.13;;
33814;SDS011;20121;51.910;8.406;2023-07-28T10:10:12;3.85;;;3.13;;
33814;SDS011;20121;51.910;8.406;2023-07-28T10:12:45;3.83;;;2.55;;
33814;SDS011;20121;51.910;8.406;2023-07-28T10:15:14;4.30;;;2.35;;
33814;SDS011;20121;51.910;8.406;2023-07-28T10:17:47;3.85;;;3.08;;
33814;SDS011;20121;51.910;8.406;2023-07-28T10:23:06;3.20;;;2.90;;
33814;SDS011;20121;51.910;8.406;2023-07-28T10:25:39;3.58;;;2.35;;
33814;SDS011;20121;51.910;8.406;2023-07-28T10:28:06;4.47;;;2.83;;
33814;SDS011;20121;51.910;8.406;2023-07-28T10:30:53;4.40;;;2.40;;
33814;SDS011;20121;51.910;8.406;2023-07-28T10:33:29;3.90;;;3.38;;
33814;SDS011;20121;51.910;8.406;2023-07-28T10:36:00;5.60;;;3.90;;
33814;SDS011;20121;51.910;8.406;2023-07-28T10:39:20;7.38;;;4.70;;
33814;SDS011;20121;51.910;8.406;2023-07-28T10:42:24;5.60;;;4.03;;
33814;SDS011;20121;51.910;8.406;2023-07-28T10:44:32;8.50;;;5.57;;
33814;SDS011;20121;51.910;8.406;2023-07-28T10:46:58;8.90;;;5.93;;
33814;SDS011;20121;51.910;8.406;2023-07-28T10:49:24;10.07;;;5.60;;
33814;SDS011;20121;51.910;8.406;2023-07-28T10:51:50;9.90;;;6.13;;
33814;SDS011;20121;51.910;8.406;2023-07-28T10:54:16;8.43;;;5.93;;
33814;SDS011;20121;51.910;8.406;2023-07-28T10:56:45;14.27;;;7.15;;
33814;SDS011;20121;51.910;8.406;2023-07-28T10:59:12;10.60;;;6.07;;
33814;SDS011;20121;51.910;8.406;2023-07-28T11:01:38;15.97;;;7.73;;
33814;SDS011;20121;51.910;8.406;2023-07-28T11:04:09;11.35;;;7.22;;
33814;SDS011;20121;51.910;8.406;2023-07-28T11:06:46;12.77;;;6.57;;
33814;SDS011;20121;51.910;8.406;2023-07-28T11:09:16;9.95;;;5.75;;
33814;SDS011;20121;51.910;8.406;2023-07-28T11:11:43;13.52;;;8.30;;
33814;SDS011;20121;51.910;8.406;2023-07-28T11:14:10;18.17;;;8.23;;
33814;SDS011;20121;51.910;8.406;2023-07-28T11:16:37;12.35;;;7.38;;
33814;SDS011;20121;51.910;8.406;2023-07-28T11:19:09;10.68;;;6.57;;
33814;SDS011;20121;51.910;8.406;2023-07-28T11:21:39;13.15;;;7.13;;
33814;SDS011;20121;51.910;8.406;2023-07-28T11:24:09;8.80;;;7.20;;
33814;SDS011;20121;51.910;8.406;2023-07-28T11:26:35;10.98;;;6.22;;
33814;SDS011;20121;51.910;8.406;2023-07-28T11:29:04;10.68;;;6.60;;
33814;SDS011;20121;51.910;8.406;2023-07-28T11:31:31;8.73;;;6.03;;
33814;SDS011;20121;51.910;8.406;2023-07-28T11:33:58;8.15;;;5.72;;
33814;SDS011;20121;51.910;8.406;2023-07-28T11:36:24;9.40;;;6.00;;
33814;SDS011;20121;51.910;8.406;2023-07-28T11:38:55;9.05;;;6.97;;
33814;SDS011;20121;51.910;8.406;2023-07-28T11:41:25;9.27;;;6.05;;
33814;SDS011;20121;51.910;8.406;2023-07-28T11:43:51;9.45;;;6.18;;
33814;SDS011;20121;51.910;8.406;2023-07-28T11:49:13;6.72;;;5.78;;
33814;SDS011;20121;51.910;8.406;2023-07-28T11:51:49;6.88;;;5.05;;
33814;SDS011;20121;51.910;8.406;2023-07-28T11:54:17;6.85;;;5.00;;
33814;SDS011;20121;51.910;8.406;2023-07-28T11:56:47;6.47;;;4.88;;
33814;SDS011;20121;51.910;8.406;2023-07-28T11:59:15;6.35;;;4.55;;
33814;SDS011;20121;51.910;8.406;2023-07-28T12:04:26;10.73;;;6.80;;
33814;SDS011;20121;51.910;8.406;2023-07-28T12:07:08;7.20;;;5.78;;
33814;SDS011;20121;51.910;8.406;2023-07-28T12:12:17;10.07;;;5.50;;
33814;SDS011;20121;51.910;8.406;2023-07-28T12:14:44;8.38;;;5.20;;
33814;SDS011;20121;51.910;8.406;2023-07-28T12:17:13;5.55;;;3.95;;
33814;SDS011;20121;51.910;8.406;2023-07-28T12:22:21;6.38;;;4.75;;
33814;SDS011;20121;51.910;8.406;2023-07-28T12:24:46;7.43;;;5.60;;
33814;SDS011;20121;51.910;8.406;2023-07-28T12:27:12;4.90;;;4.40;;
33814;SDS011;20121;51.910;8.406;2023-07-28T12:29:38;5.23;;;4.20;;
33814;SDS011;20121;51.910;8.406;2023-07-28T12:32:04;4.65;;;3.53;;
33814;SDS011;20121;51.910;8.406;2023-07-28T12:34:30;4.30;;;3.85;;
33814;SDS011;20121;51.910;8.406;2023-07-28T12:36:56;4.80;;;3.40;;
33814;SDS011;20121;51.910;8.406;2023-07-28T12:39:21;4.87;;;3.53;;
33814;SDS011;20121;51.910;8.406;2023-07-28T12:41:48;3.53;;;3.15;;
33814;SDS011;20121;51.910;8.406;2023-07-28T12:44:24;3.17;;;2.88;;
33814;SDS011;20121;51.910;8.406;2023-07-28T12:46:50;3.33;;;3.03;;
33814;SDS011;20121;51.910;8.406;2023-07-28T12:49:15;6.83;;;2.97;;
33814;SDS011;20121;51.910;8.406;2023-07-28T12:51:44;2.92;;;2.67;;
33814;SDS011;20121;51.910;8.406;2023-07-28T12:54:09;3.87;;;2.97;;
33814;SDS011;20121;51.910;8.406;2023-07-28T12:56:35;2.57;;;2.20;;
33814;SDS011;20121;51.910;8.406;2023-07-28T12:59:00;2.37;;;2.10;;
33814;SDS011;20121;51.910;8.406;2023-07-28T13:01:26;3.10;;;2.80;;
33814;SDS011;20121;51.910;8.406;2023-07-28T13:03:52;2.10;;;1.83;;
33814;SDS011;20121;51.910;8.406;2023-07-28T13:06:18;2.08;;;1.88;;
33814;SDS011;20121;51.910;8.406;2023-07-28T13:08:44;2.55;;;2.35;;
33814;SDS011;20121;51.910;8.406;2023-07-28T13:11:10;2.87;;;2.50;;
33814;SDS011;20121;51.910;8.406;2023-07-28T13:13:36;2.70;;;2.50;;
33814;SDS011;20121;51.910;8.406;2023-07-28T13:16:01;4.40;;;2.43;;
33814;SDS011;20121;51.910;8.406;2023-07-28T13:18:27;4.20;;;2.80;;
33814;SDS011;20121;51.910;8.406;2023-07-28T13:20:54;2.33;;;2.22;;
33814;SDS011;20121;51.910;8.406;2023-07-28T13:23:20;4.50;;;2.97;;
33814;SDS011;20121;51.910;8.406;2023-07-28T13:25:46;2.27;;;2.07;;
33814;SDS011;20121;51.910;8.406;2023-07-28T13:28:11;3.93;;;2.80;;
33814;SDS011;20121;51.910;8.406;2023-07-28T13:30:37;3.50;;;3.20;;
33814;SDS011;20121;51.910;8.406;2023-07-28T13:33:02;3.30;;;3.00;;
33814;SDS011;20121;51.910;8.406;2023-07-28T13:35:30;3.50;;;3.10;;
33814;SDS011;20121;51.910;8.406;2023-07-28T13:37:55;4.40;;;3.47;;
33814;SDS011;20121;51.910;8.406;2023-07-28T13:40:21;3.83;;;3.53;;
33814;SDS011;20121;51.910;8.406;2023-07-28T13:42:47;5.00;;;3.43;;
33814;SDS011;20121;51.910;8.406;2023-07-28T13:45:12;4.50;;;3.17;;
33814;SDS011;20121;51.910;8.406;2023-07-28T13:47:38;3.13;;;2.70;;
33814;SDS011;20121;51.910;8.406;2023-07-28T13:50:04;3.97;;;3.60;;
33814;SDS011;20121;51.910;8.406;2023-07-28T13:52:30;3.80;;;3.50;;
33814;SDS011;20121;51.910;8.406;2023-07-28T13:54:55;3.27;;;2.97;;
33814;SDS011;20121;51.910;8.406;2023-07-28T13:57:21;3.93;;;3.63;;
33814;SDS011;20121;51.910;8.406;2023-07-28T13:59:46;2.70;;;2.50;;
33814;SDS011;20121;51.910;8.406;2023-07-28T14:02:12;2.83;;;2.63;;
33814;SDS011;20121;51.910;8.406;2023-07-28T14:04:38;3.87;;;2.80;;
33814;SDS011;20121;51.910;8.406;2023-07-28T14:07:03;3.40;;;2.57;;
33814;SDS011;20121;51.910;8.406;2023-07-28T14:09:29;3.70;;;2.40;;
33814;SDS011;20121;51.910;8.406;2023-07-28T14:11:55;2.07;;;1.83;;
33814;SDS011;20121;51.910;8.406;2023-07-28T14:14:20;4.13;;;2.63;;
33814;SDS011;20121;51.910;8.406;2023-07-28T14:16:46;3.30;;;3.00;;
33814;SDS011;20121;51.910;8.406;2023-07-28T14:19:12;3.73;;;2.53;;
33814;SDS011;20121;51.910;8.406;2023-07-28T14:21:38;3.33;;;3.03;;
33814;SDS011;20121;51.910;8.406;2023-07-28T14:24:04;2.83;;;2.63;;
33814;SDS011;20121;51.910;8.406;2023-07-28T14:26:30;3.55;;;2.80;;
33814;SDS011;20121;51.910;8.406;2023-07-28T14:28:56;2.70;;;2.50;;
33814;SDS011;20121;51.910;8.406;2023-07-28T14:31:22;2.97;;;2.70;;
33814;SDS011;20121;51.910;8.406;2023-07-28T14:33:47;3.10;;;2.40;;
33814;SDS011;20121;51.910;8.406;2023-07-28T14:36:13;2.83;;;2.53;;
33814;SDS011;20121;51.910;8.406;2023-07-28T14:38:39;4.33;;;3.63;;
33814;SDS011;20121;51.910;8.406;2023-07-28T14:41:04;3.43;;;2.70;;
33814;SDS011;20121;51.910;8.406;2023-07-28T14:43:30;3.13;;;2.83;;
33814;SDS011;20121;51.910;8.406;2023-07-28T14:45:56;3.07;;;2.53;;
33814;SDS011;20121;51.910;8.406;2023-07-28T14:48:21;2.53;;;2.33;;
33814;SDS011;20121;51.910;8.406;2023-07-28T14:50:47;2.43;;;2.23;;
33814;SDS011;20121;51.910;8.406;2023-07-28T14:53:32;2.40;;;2.20;;
33814;SDS011;20121;51.910;8.406;2023-07-28T14:56:02;3.00;;;2.00;;
33814;SDS011;20121;51.910;8.406;2023-07-28T14:58:29;2.35;;;2.15;;
33814;SDS011;20121;51.910;8.406;2023-07-28T15:00:56;3.42;;;2.80;;
33814;SDS011;20121;51.910;8.406;2023-07-28T15:03:22;2.47;;;2.10;;
33814;SDS011;20121;51.910;8.406;2023-07-28T15:05:51;2.80;;;2.60;;